sensor_id;sensor_type;location;lat;lon;timestamp;P1;durP1;ratioP1;P2;durP2;ratioP2
53519;SDS011;39397;53.204;5.778;2024-02-23T00:01:20;9.48;;;1.60;;
53519;SDS011;39397;53.204;5.778;2024-02-23T00:03:48;9.18;;;1.30;;
53519;SDS011;39397;53.204;5.778;2024-02-23T00:06:17;20.02;;;3.30;;
53519;SDS011;39397;53.204;5.778;2024-02-23T00:08:43;8.27;;;1.67;;
53519;SDS011;39397;53.204;5.778;2024-02-23T00:11:11;11.07;;;1.42;;
53519;SDS011;39397;53.204;5.778;2024-02-23T00:13:37;9.55;;;1.15;;
53519;SDS011;39397;53.204;5.778;2024-02-23T00:16:03;8.40;;;1.58;;
53519;SDS011;39397;53.204;5.778;2024-02-23T00:18:29;6.20;;;1.13;;
53519;SDS011;39397;53.204;5.778;2024-02-23T00:20:55;4.60;;;0.68;;
53519;SDS011;39397;53.204;5.778;2024-02-23T00:23:22;5.18;;;0.70;;
53519;SDS011;39397;53.204;5.778;2024-02-23T00:25:52;6.28;;;0.93;;
53519;SDS011;39397;53.204;5.778;2024-02-23T00:28:18;9.07;;;1.60;;
53519;SDS011;39397;53.204;5.778;2024-02-23T00:30:50;8.43;;;1.33;;
53519;SDS011;39397;53.204;5.778;2024-02-23T00:33:18;6.00;;;1.35;;
53519;SDS011;39397;53.204;5.778;2024-02-23T00:35:44;7.63;;;1.30;;
53519;SDS011;39397;53.204;5.778;2024-02-23T00:38:10;10.98;;;1.50;;
53519;SDS011;39397;53.204;5.778;2024-02-23T00:40:36;11.18;;;1.60;;
53519;SDS011;39397;53.204;5.778;2024-02-23T00:43:03;9.23;;;1.75;;
53519;SDS011;39397;53.204;5.778;2024-02-23T00:45:34;18.35;;;2.65;;
53519;SDS011;39397;53.204;5.778;2024-02-23T00:48:00;14.50;;;2.97;;
53519;SDS011;39397;53.204;5.778;2024-02-23T00:50:30;13.52;;;2.55;;
53519;SDS011;39397;53.204;5.778;2024-02-23T00:53:02;17.20;;;2.28;;
53519;SDS011;39397;53.204;5.778;2024-02-23T00:55:28;25.08;;;3.25;;
53519;SDS011;39397;53.204;5.778;2024-02-23T00:57:54;18.00;;;2.53;;
53519;SDS011;39397;53.204;5.778;2024-02-23T01:00:20;16.65;;;2.72;;
53519;SDS011;39397;53.204;5.778;2024-02-23T01:02:46;12.60;;;2.60;;
53519;SDS011;39397;53.204;5.778;2024-02-23T01:05:12;16.23;;;2.35;;
53519;SDS011;39397;53.204;5.778;2024-02-23T01:07:40;18.95;;;2.40;;
53519;SDS011;39397;53.204;5.778;2024-02-23T01:10:06;13.10;;;2.47;;
53519;SDS011;39397;53.204;5.778;2024-02-23T01:12:35;19.55;;;2.83;;
53519;SDS011;39397;53.204;5.778;2024-02-23T01:15:01;16.38;;;2.85;;
53519;SDS011;39397;53.204;5.778;2024-02-23T01:17:27;13.35;;;3.25;;
53519;SDS011;39397;53.204;5.778;2024-02-23T01:19:53;17.50;;;3.17;;
53519;SDS011;39397;53.204;5.778;2024-02-23T01:22:22;11.70;;;2.15;;
53519;SDS011;39397;53.204;5.778;2024-02-23T01:24:48;9.15;;;1.70;;
53519;SDS011;39397;53.204;5.778;2024-02-23T01:27:13;11.88;;;2.35;;
53519;SDS011;39397;53.204;5.778;2024-02-23T01:29:42;14.77;;;2.42;;
53519;SDS011;39397;53.204;5.778;2024-02-23T01:32:10;16.65;;;3.10;;
53519;SDS011;39397;53.204;5.778;2024-02-23T01:34:36;13.45;;;2.17;;
53519;SDS011;39397;53.204;5.778;2024-02-23T01:37:05;16.85;;;2.58;;
53519;SDS011;39397;53.204;5.778;2024-02-23T01:39:34;14.48;;;2.17;;
53519;SDS011;39397;53.204;5.778;2024-02-23T01:42:00;11.95;;;2.03;;
53519;SDS011;39397;53.204;5.778;2024-02-23T01:44:34;12.47;;;1.77;;
53519;SDS011;39397;53.204;5.778;2024-02-23T01:47:00;12.70;;;2.75;;
53519;SDS011;39397;53.204;5.778;2024-02-23T01:49:29;16.58;;;2.03;;
53519;SDS011;39397;53.204;5.778;2024-02-23T01:52:02;11.43;;;2.05;;
53519;SDS011;39397;53.204;5.778;2024-02-23T01:54:32;12.80;;;2.20;;
53519;SDS011;39397;53.204;5.778;2024-02-23T01:57:01;17.05;;;2.65;;
53519;SDS011;39397;53.204;5.778;2024-02-23T01:59:28;12.00;;;2.20;;
53519;SDS011;39397;53.204;5.778;2024-02-23T02:01:55;10.18;;;1.88;;
53519;SDS011;39397;53.204;5.778;2024-02-23T02:04:21;17.88;;;2.63;;
53519;SDS011;39397;53.204;5.778;2024-02-23T02:06:46;10.57;;;1.88;;
53519;SDS011;39397;53.204;5.778;2024-02-23T02:09:16;12.98;;;1.80;;
53519;SDS011;39397;53.204;5.778;2024-02-23T02:11:45;9.70;;;1.92;;
53519;SDS011;39397;53.204;5.778;2024-02-23T02:14:12;10.45;;;2.40;;
53519;SDS011;39397;53.204;5.778;2024-02-23T02:16:38;12.05;;;2.38;;
53519;SDS011;39397;53.204;5.778;2024-02-23T02:19:04;10.40;;;2.05;;
53519;SDS011;39397;53.204;5.778;2024-02-23T02:21:31;16.05;;;3.83;;
53519;SDS011;39397;53.204;5.778;2024-02-23T02:23:57;11.85;;;1.85;;
53519;SDS011;39397;53.204;5.778;2024-02-23T02:26:23;11.63;;;1.70;;
53519;SDS011;39397;53.204;5.778;2024-02-23T02:28:49;9.75;;;2.03;;
53519;SDS011;39397;53.204;5.778;2024-02-23T02:31:15;8.57;;;1.92;;
53519;SDS011;39397;53.204;5.778;2024-02-23T02:33:43;13.60;;;1.73;;
53519;SDS011;39397;53.204;5.778;2024-02-23T02:36:09;8.93;;;2.75;;
53519;SDS011;39397;53.204;5.778;2024-02-23T02:38:40;14.70;;;2.47;;
53519;SDS011;39397;53.204;5.778;2024-02-23T02:41:06;8.60;;;1.58;;
53519;SDS011;39397;53.204;5.778;2024-02-23T02:43:32;9.77;;;1.67;;
53519;SDS011;39397;53.204;5.778;2024-02-23T02:46:00;12.88;;;2.30;;
53519;SDS011;39397;53.204;5.778;2024-02-23T02:48:27;9.82;;;2.10;;
53519;SDS011;39397;53.204;5.778;2024-02-23T02:50:53;14.30;;;2.10;;
53519;SDS011;39397;53.204;5.778;2024-02-23T02:53:19;13.27;;;1.55;;
53519;SDS011;39397;53.204;5.778;2024-02-23T02:55:45;11.20;;;1.67;;
53519;SDS011;39397;53.204;5.778;2024-02-23T02:58:13;7.88;;;1.27;;
53519;SDS011;39397;53.204;5.778;2024-02-23T03:00:39;12.95;;;1.85;;
53519;SDS011;39397;53.204;5.778;2024-02-23T03:03:05;7.07;;;1.63;;
53519;SDS011;39397;53.204;5.778;2024-02-23T03:05:31;13.73;;;2.17;;
53519;SDS011;39397;53.204;5.778;2024-02-23T03:07:57;10.43;;;1.75;;
53519;SDS011;39397;53.204;5.778;2024-02-23T03:10:23;9.95;;;1.48;;
53519;SDS011;39397;53.204;5.778;2024-02-23T03:12:50;9.77;;;1.98;;
53519;SDS011;39397;53.204;5.778;2024-02-23T03:15:15;6.55;;;1.63;;
53519;SDS011;39397;53.204;5.778;2024-02-23T03:17:41;9.60;;;1.70;;
53519;SDS011;39397;53.204;5.778;2024-02-23T03:20:10;13.07;;;2.38;;
53519;SDS011;39397;53.204;5.778;2024-02-23T03:22:37;15.70;;;4.25;;
53519;SDS011;39397;53.204;5.778;2024-02-23T03:25:05;12.20;;;1.70;;
53519;SDS011;39397;53.204;5.778;2024-02-23T03:27:36;11.95;;;2.00;;
53519;SDS011;39397;53.204;5.778;2024-02-23T03:30:07;6.20;;;1.17;;
53519;SDS011;39397;53.204;5.778;2024-02-23T03:32:36;12.70;;;2.28;;
53519;SDS011;39397;53.204;5.778;2024-02-23T03:35:04;12.50;;;1.45;;
53519;SDS011;39397;53.204;5.778;2024-02-23T03:37:32;10.00;;;1.42;;
53519;SDS011;39397;53.204;5.778;2024-02-23T03:39:57;11.43;;;1.88;;
53519;SDS011;39397;53.204;5.778;2024-02-23T03:42:25;7.20;;;1.13;;
53519;SDS011;39397;53.204;5.778;2024-02-23T03:44:51;12.32;;;1.98;;
53519;SDS011;39397;53.204;5.778;2024-02-23T03:47:17;7.63;;;1.40;;
53519;SDS011;39397;53.204;5.778;2024-02-23T03:49:43;11.65;;;1.85;;
53519;SDS011;39397;53.204;5.778;2024-02-23T03:52:09;8.23;;;1.48;;
53519;SDS011;39397;53.204;5.778;2024-02-23T03:54:35;13.13;;;2.47;;
53519;SDS011;39397;53.204;5.778;2024-02-23T03:57:01;8.32;;;1.50;;
53519;SDS011;39397;53.204;5.778;2024-02-23T03:59:30;10.57;;;1.70;;
53519;SDS011;39397;53.204;5.778;2024-02-23T04:01:56;12.25;;;1.60;;
53519;SDS011;39397;53.204;5.778;2024-02-23T04:04:21;12.65;;;1.95;;
53519;SDS011;39397;53.204;5.778;2024-02-23T04:06:47;9.98;;;1.80;;
53519;SDS011;39397;53.204;5.778;2024-02-23T04:09:13;10.43;;;1.67;;
53519;SDS011;39397;53.204;5.778;2024-02-23T04:11:39;8.05;;;2.22;;
53519;SDS011;39397;53.204;5.778;2024-02-23T04:14:07;9.35;;;1.65;;
53519;SDS011;39397;53.204;5.778;2024-02-23T04:16:33;7.15;;;1.35;;
53519;SDS011;39397;53.204;5.778;2024-02-23T04:18:59;8.45;;;1.17;;
53519;SDS011;39397;53.204;5.778;2024-02-23T04:21:25;12.00;;;1.52;;
53519;SDS011;39397;53.204;5.778;2024-02-23T04:23:51;13.15;;;1.77;;
53519;SDS011;39397;53.204;5.778;2024-02-23T04:26:17;7.05;;;1.20;;
53519;SDS011;39397;53.204;5.778;2024-02-23T04:28:43;6.78;;;1.25;;
53519;SDS011;39397;53.204;5.778;2024-02-23T04:31:12;10.55;;;1.85;;
53519;SDS011;39397;53.204;5.778;2024-02-23T04:33:38;7.10;;;1.27;;
53519;SDS011;39397;53.204;5.778;2024-02-23T04:36:04;15.05;;;4.53;;
53519;SDS011;39397;53.204;5.778;2024-02-23T04:38:31;8.75;;;1.42;;
53519;SDS011;39397;53.204;5.778;2024-02-23T04:40:57;10.52;;;1.55;;
53519;SDS011;39397;53.204;5.778;2024-02-23T04:43:25;11.07;;;1.40;;
53519;SDS011;39397;53.204;5.778;2024-02-23T04:45:51;7.28;;;1.25;;
53519;SDS011;39397;53.204;5.778;2024-02-23T04:48:20;5.72;;;1.50;;
53519;SDS011;39397;53.204;5.778;2024-02-23T04:50:47;15.27;;;2.63;;
53519;SDS011;39397;53.204;5.778;2024-02-23T04:53:12;7.82;;;1.33;;
53519;SDS011;39397;53.204;5.778;2024-02-23T04:55:38;14.93;;;1.48;;
53519;SDS011;39397;53.204;5.778;2024-02-23T04:58:06;10.30;;;1.83;;
53519;SDS011;39397;53.204;5.778;2024-02-23T05:00:32;9.00;;;2.58;;
53519;SDS011;39397;53.204;5.778;2024-02-23T05:03:00;9.60;;;2.08;;
53519;SDS011;39397;53.204;5.778;2024-02-23T05:05:29;8.27;;;1.67;;
53519;SDS011;39397;53.204;5.778;2024-02-23T05:07:58;9.35;;;1.60;;
53519;SDS011;39397;53.204;5.778;2024-02-23T05:10:27;10.88;;;2.17;;
53519;SDS011;39397;53.204;5.778;2024-02-23T05:12:53;14.70;;;1.88;;
53519;SDS011;39397;53.204;5.778;2024-02-23T05:15:20;10.23;;;1.63;;
53519;SDS011;39397;53.204;5.778;2024-02-23T05:17:46;10.18;;;2.03;;
53519;SDS011;39397;53.204;5.778;2024-02-23T05:20:12;13.48;;;2.03;;
53519;SDS011;39397;53.204;5.778;2024-02-23T05:22:41;10.60;;;1.73;;
53519;SDS011;39397;53.204;5.778;2024-02-23T05:25:07;10.77;;;1.70;;
53519;SDS011;39397;53.204;5.778;2024-02-23T05:27:34;8.93;;;1.55;;
53519;SDS011;39397;53.204;5.778;2024-02-23T05:30:00;11.43;;;1.55;;
53519;SDS011;39397;53.204;5.778;2024-02-23T05:32:25;10.88;;;2.15;;
53519;SDS011;39397;53.204;5.778;2024-02-23T05:34:51;7.60;;;1.75;;
53519;SDS011;39397;53.204;5.778;2024-02-23T05:37:19;13.05;;;1.95;;
53519;SDS011;39397;53.204;5.778;2024-02-23T05:39:47;11.02;;;1.75;;
53519;SDS011;39397;53.204;5.778;2024-02-23T05:42:13;14.73;;;2.75;;
53519;SDS011;39397;53.204;5.778;2024-02-23T05:44:39;9.10;;;1.77;;
53519;SDS011;39397;53.204;5.778;2024-02-23T05:47:08;11.30;;;1.73;;
53519;SDS011;39397;53.204;5.778;2024-02-23T05:49:35;12.45;;;1.98;;
53519;SDS011;39397;53.204;5.778;2024-02-23T05:52:00;8.50;;;1.42;;
53519;SDS011;39397;53.204;5.778;2024-02-23T05:54:26;11.55;;;1.55;;
53519;SDS011;39397;53.204;5.778;2024-02-23T05:56:58;9.35;;;1.33;;
53519;SDS011;39397;53.204;5.778;2024-02-23T05:59:26;6.90;;;1.35;;
53519;SDS011;39397;53.204;5.778;2024-02-23T06:01:52;10.35;;;1.80;;
53519;SDS011;39397;53.204;5.778;2024-02-23T06:04:22;12.35;;;2.20;;
53519;SDS011;39397;53.204;5.778;2024-02-23T06:06:48;8.95;;;1.50;;
53519;SDS011;39397;53.204;5.778;2024-02-23T06:09:14;8.85;;;1.40;;
53519;SDS011;39397;53.204;5.778;2024-02-23T06:11:41;7.32;;;1.27;;
53519;SDS011;39397;53.204;5.778;2024-02-23T06:14:07;13.88;;;1.65;;
53519;SDS011;39397;53.204;5.778;2024-02-23T06:16:33;8.85;;;1.75;;
53519;SDS011;39397;53.204;5.778;2024-02-23T06:18:59;8.00;;;1.70;;
53519;SDS011;39397;53.204;5.778;2024-02-23T06:21:25;10.38;;;1.95;;
53519;SDS011;39397;53.204;5.778;2024-02-23T06:23:51;10.27;;;1.58;;
53519;SDS011;39397;53.204;5.778;2024-02-23T06:26:18;9.15;;;2.22;;
53519;SDS011;39397;53.204;5.778;2024-02-23T06:28:43;15.38;;;2.38;;
53519;SDS011;39397;53.204;5.778;2024-02-23T06:31:09;10.13;;;2.10;;
53519;SDS011;39397;53.204;5.778;2024-02-23T06:33:38;11.80;;;2.20;;
53519;SDS011;39397;53.204;5.778;2024-02-23T06:36:08;15.35;;;3.72;;
53519;SDS011;39397;53.204;5.778;2024-02-23T06:38:34;15.57;;;3.28;;
53519;SDS011;39397;53.204;5.778;2024-02-23T06:41:00;15.63;;;2.85;;
53519;SDS011;39397;53.204;5.778;2024-02-23T06:43:27;15.20;;;3.80;;
53519;SDS011;39397;53.204;5.778;2024-02-23T06:45:52;12.00;;;2.90;;
53519;SDS011;39397;53.204;5.778;2024-02-23T06:48:18;14.40;;;4.30;;
53519;SDS011;39397;53.204;5.778;2024-02-23T06:50:44;18.58;;;3.20;;
53519;SDS011;39397;53.204;5.778;2024-02-23T06:53:10;10.60;;;2.90;;
53519;SDS011;39397;53.204;5.778;2024-02-23T06:55:39;13.38;;;3.45;;
53519;SDS011;39397;53.204;5.778;2024-02-23T06:58:07;16.73;;;3.55;;
53519;SDS011;39397;53.204;5.778;2024-02-23T07:00:32;13.50;;;3.53;;
53519;SDS011;39397;53.204;5.778;2024-02-23T07:02:58;11.00;;;3.63;;
53519;SDS011;39397;53.204;5.778;2024-02-23T07:05:26;14.32;;;3.63;;
53519;SDS011;39397;53.204;5.778;2024-02-23T07:07:57;12.73;;;4.43;;
53519;SDS011;39397;53.204;5.778;2024-02-23T07:10:25;14.90;;;3.78;;
53519;SDS011;39397;53.204;5.778;2024-02-23T07:12:51;13.40;;;3.58;;
53519;SDS011;39397;53.204;5.778;2024-02-23T07:15:21;13.13;;;3.35;;
53519;SDS011;39397;53.204;5.778;2024-02-23T07:17:47;11.60;;;3.55;;
53519;SDS011;39397;53.204;5.778;2024-02-23T07:20:13;16.13;;;3.88;;
53519;SDS011;39397;53.204;5.778;2024-02-23T07:22:39;7.97;;;2.88;;
53519;SDS011;39397;53.204;5.778;2024-02-23T07:25:09;8.15;;;2.80;;
53519;SDS011;39397;53.204;5.778;2024-02-23T07:27:35;9.48;;;2.40;;
53519;SDS011;39397;53.204;5.778;2024-02-23T07:30:01;7.10;;;1.98;;
53519;SDS011;39397;53.204;5.778;2024-02-23T07:32:28;6.90;;;1.80;;
53519;SDS011;39397;53.204;5.778;2024-02-23T07:34:54;6.68;;;1.50;;
53519;SDS011;39397;53.204;5.778;2024-02-23T07:37:20;3.53;;;1.27;;
53519;SDS011;39397;53.204;5.778;2024-02-23T07:39:46;5.00;;;1.58;;
53519;SDS011;39397;53.204;5.778;2024-02-23T07:42:12;8.93;;;1.52;;
53519;SDS011;39397;53.204;5.778;2024-02-23T07:44:40;6.65;;;1.23;;
53519;SDS011;39397;53.204;5.778;2024-02-23T07:47:05;6.03;;;1.30;;
53519;SDS011;39397;53.204;5.778;2024-02-23T07:49:31;5.55;;;1.27;;
53519;SDS011;39397;53.204;5.778;2024-02-23T07:51:57;8.35;;;2.08;;
53519;SDS011;39397;53.204;5.778;2024-02-23T07:54:24;11.15;;;2.00;;
53519;SDS011;39397;53.204;5.778;2024-02-23T07:56:49;4.93;;;2.17;;
53519;SDS011;39397;53.204;5.778;2024-02-23T07:59:15;5.95;;;1.80;;
53519;SDS011;39397;53.204;5.778;2024-02-23T08:01:41;8.57;;;2.90;;
53519;SDS011;39397;53.204;5.778;2024-02-23T08:04:07;10.05;;;2.80;;
53519;SDS011;39397;53.204;5.778;2024-02-23T08:06:33;9.07;;;3.17;;
53519;SDS011;39397;53.204;5.778;2024-02-23T08:08:59;8.55;;;3.25;;
53519;SDS011;39397;53.204;5.778;2024-02-23T08:11:27;11.38;;;3.22;;
53519;SDS011;39397;53.204;5.778;2024-02-23T08:13:53;9.57;;;2.90;;
53519;SDS011;39397;53.204;5.778;2024-02-23T08:16:19;9.13;;;3.45;;
53519;SDS011;39397;53.204;5.778;2024-02-23T08:18:44;8.68;;;3.33;;
53519;SDS011;39397;53.204;5.778;2024-02-23T08:21:10;7.07;;;3.53;;
53519;SDS011;39397;53.204;5.778;2024-02-23T08:23:37;9.07;;;3.40;;
53519;SDS011;39397;53.204;5.778;2024-02-23T08:26:03;10.07;;;3.22;;
53519;SDS011;39397;53.204;5.778;2024-02-23T08:28:29;8.27;;;3.75;;
53519;SDS011;39397;53.204;5.778;2024-02-23T08:30:55;6.63;;;3.30;;
53519;SDS011;39397;53.204;5.778;2024-02-23T08:33:20;7.40;;;3.78;;
53519;SDS011;39397;53.204;5.778;2024-02-23T08:35:46;9.80;;;4.32;;
53519;SDS011;39397;53.204;5.778;2024-02-23T08:38:13;9.05;;;4.20;;
53519;SDS011;39397;53.204;5.778;2024-02-23T08:40:39;7.50;;;4.55;;
53519;SDS011;39397;53.204;5.778;2024-02-23T08:43:05;6.45;;;3.10;;
53519;SDS011;39397;53.204;5.778;2024-02-23T08:45:33;13.07;;;3.70;;
53519;SDS011;39397;53.204;5.778;2024-02-23T08:47:59;9.07;;;3.10;;
53519;SDS011;39397;53.204;5.778;2024-02-23T08:50:25;10.35;;;2.90;;
53519;SDS011;39397;53.204;5.778;2024-02-23T08:52:50;7.45;;;2.78;;
53519;SDS011;39397;53.204;5.778;2024-02-23T08:55:16;7.28;;;2.90;;
53519;SDS011;39397;53.204;5.778;2024-02-23T08:57:42;6.47;;;2.78;;
53519;SDS011;39397;53.204;5.778;2024-02-23T09:00:08;8.77;;;2.72;;
53519;SDS011;39397;53.204;5.778;2024-02-23T09:02:35;7.35;;;2.40;;
53519;SDS011;39397;53.204;5.778;2024-02-23T09:05:03;6.80;;;3.00;;
53519;SDS011;39397;53.204;5.778;2024-02-23T09:07:35;6.85;;;2.55;;
53519;SDS011;39397;53.204;5.778;2024-02-23T09:10:01;9.05;;;3.20;;
53519;SDS011;39397;53.204;5.778;2024-02-23T09:12:30;8.45;;;2.63;;
53519;SDS011;39397;53.204;5.778;2024-02-23T09:14:56;9.00;;;2.28;;
53519;SDS011;39397;53.204;5.778;2024-02-23T09:17:21;6.05;;;2.25;;
53519;SDS011;39397;53.204;5.778;2024-02-23T09:19:48;7.70;;;2.50;;
53519;SDS011;39397;53.204;5.778;2024-02-23T09:22:14;8.70;;;2.40;;
53519;SDS011;39397;53.204;5.778;2024-02-23T09:24:40;7.32;;;2.00;;
53519;SDS011;39397;53.204;5.778;2024-02-23T09:27:06;5.05;;;1.80;;
53519;SDS011;39397;53.204;5.778;2024-02-23T09:29:37;8.80;;;3.00;;
53519;SDS011;39397;53.204;5.778;2024-02-23T09:32:05;4.97;;;1.65;;
53519;SDS011;39397;53.204;5.778;2024-02-23T09:34:31;5.10;;;1.50;;
53519;SDS011;39397;53.204;5.778;2024-02-23T09:37:02;5.70;;;1.50;;
53519;SDS011;39397;53.204;5.778;2024-02-23T09:39:30;6.05;;;1.85;;
53519;SDS011;39397;53.204;5.778;2024-02-23T09:41:56;8.73;;;1.95;;
53519;SDS011;39397;53.204;5.778;2024-02-23T09:44:22;8.30;;;1.73;;
53519;SDS011;39397;53.204;5.778;2024-02-23T09:46:48;5.15;;;1.40;;
53519;SDS011;39397;53.204;5.778;2024-02-23T09:49:14;6.25;;;1.60;;
53519;SDS011;39397;53.204;5.778;2024-02-23T09:51:43;6.50;;;1.60;;
53519;SDS011;39397;53.204;5.778;2024-02-23T09:54:12;4.65;;;1.00;;
53519;SDS011;39397;53.204;5.778;2024-02-23T09:56:37;6.05;;;1.13;;
53519;SDS011;39397;53.204;5.778;2024-02-23T09:59:04;3.15;;;0.98;;
53519;SDS011;39397;53.204;5.778;2024-02-23T10:01:31;6.57;;;1.40;;
53519;SDS011;39397;53.204;5.778;2024-02-23T10:03:58;6.93;;;1.50;;
53519;SDS011;39397;53.204;5.778;2024-02-23T10:06:31;5.60;;;1.30;;
53519;SDS011;39397;53.204;5.778;2024-02-23T10:09:00;5.13;;;1.00;;
53519;SDS011;39397;53.204;5.778;2024-02-23T10:11:33;4.57;;;1.60;;
53519;SDS011;39397;53.204;5.778;2024-02-23T10:14:01;8.65;;;2.30;;
53519;SDS011;39397;53.204;5.778;2024-02-23T10:16:30;9.13;;;2.50;;
53519;SDS011;39397;53.204;5.778;2024-02-23T10:18:57;10.10;;;2.45;;
53519;SDS011;39397;53.204;5.778;2024-02-23T10:21:23;4.28;;;1.13;;
53519;SDS011;39397;53.204;5.778;2024-02-23T10:23:52;5.93;;;1.20;;
53519;SDS011;39397;53.204;5.778;2024-02-23T10:26:21;4.32;;;1.15;;
53519;SDS011;39397;53.204;5.778;2024-02-23T10:28:51;6.50;;;1.70;;
53519;SDS011;39397;53.204;5.778;2024-02-23T10:31:17;8.32;;;1.92;;
53519;SDS011;39397;53.204;5.778;2024-02-23T10:33:44;4.97;;;1.60;;
53519;SDS011;39397;53.204;5.778;2024-02-23T10:36:12;3.67;;;1.13;;
53519;SDS011;39397;53.204;5.778;2024-02-23T10:38:41;4.95;;;1.45;;
53519;SDS011;39397;53.204;5.778;2024-02-23T10:41:15;5.40;;;1.50;;
53519;SDS011;39397;53.204;5.778;2024-02-23T10:46:13;4.70;;;1.15;;
53519;SDS011;39397;53.204;5.778;2024-02-23T10:48:43;3.50;;;1.02;;
53519;SDS011;39397;53.204;5.778;2024-02-23T10:51:10;8.40;;;1.50;;
53519;SDS011;39397;53.204;5.778;2024-02-23T10:53:39;3.25;;;0.88;;
53519;SDS011;39397;53.204;5.778;2024-02-23T10:56:08;7.72;;;1.67;;
53519;SDS011;39397;53.204;5.778;2024-02-23T10:58:36;4.43;;;1.35;;
53519;SDS011;39397;53.204;5.778;2024-02-23T11:01:02;7.38;;;2.10;;
53519;SDS011;39397;53.204;5.778;2024-02-23T11:03:32;9.02;;;1.95;;
53519;SDS011;39397;53.204;5.778;2024-02-23T11:06:02;6.03;;;1.75;;
53519;SDS011;39397;53.204;5.778;2024-02-23T11:08:33;5.70;;;1.60;;
53519;SDS011;39397;53.204;5.778;2024-02-23T11:11:08;4.88;;;1.48;;
53519;SDS011;39397;53.204;5.778;2024-02-23T11:13:43;5.45;;;1.40;;
53519;SDS011;39397;53.204;5.778;2024-02-23T11:16:55;6.78;;;1.15;;
53519;SDS011;39397;53.204;5.778;2024-02-23T11:19:39;4.85;;;1.13;;
53519;SDS011;39397;53.204;5.778;2024-02-23T11:25:29;4.85;;;1.30;;
53519;SDS011;39397;53.204;5.778;2024-02-23T11:27:54;6.85;;;2.10;;
53519;SDS011;39397;53.204;5.778;2024-02-23T11:30:23;5.05;;;1.15;;
53519;SDS011;39397;53.204;5.778;2024-02-23T11:33:07;7.40;;;1.50;;
53519;SDS011;39397;53.204;5.778;2024-02-23T11:35:38;4.90;;;1.30;;
53519;SDS011;39397;53.204;5.778;2024-02-23T11:38:14;6.78;;;1.33;;
53519;SDS011;39397;53.204;5.778;2024-02-23T11:40:42;8.65;;;1.33;;
53519;SDS011;39397;53.204;5.778;2024-02-23T11:43:08;4.00;;;1.33;;
53519;SDS011;39397;53.204;5.778;2024-02-23T11:48:45;6.10;;;1.20;;
53519;SDS011;39397;53.204;5.778;2024-02-23T11:51:17;4.35;;;0.95;;
53519;SDS011;39397;53.204;5.778;2024-02-23T11:53:48;6.00;;;1.58;;
53519;SDS011;39397;53.204;5.778;2024-02-23T11:56:14;6.30;;;1.77;;
53519;SDS011;39397;53.204;5.778;2024-02-23T11:58:46;7.53;;;1.70;;
53519;SDS011;39397;53.204;5.778;2024-02-23T12:01:15;4.82;;;1.45;;
53519;SDS011;39397;53.204;5.778;2024-02-23T12:03:41;5.05;;;1.50;;
53519;SDS011;39397;53.204;5.778;2024-02-23T12:06:09;5.35;;;1.40;;
53519;SDS011;39397;53.204;5.778;2024-02-23T12:08:40;6.88;;;1.30;;
53519;SDS011;39397;53.204;5.778;2024-02-23T12:11:07;6.22;;;1.35;;
53519;SDS011;39397;53.204;5.778;2024-02-23T12:13:42;6.88;;;1.58;;
53519;SDS011;39397;53.204;5.778;2024-02-23T12:16:08;6.53;;;1.70;;
53519;SDS011;39397;53.204;5.778;2024-02-23T12:18:35;5.43;;;1.67;;
53519;SDS011;39397;53.204;5.778;2024-02-23T12:21:01;4.60;;;1.45;;
53519;SDS011;39397;53.204;5.778;2024-02-23T12:23:40;7.97;;;1.25;;
53519;SDS011;39397;53.204;5.778;2024-02-23T12:26:07;6.32;;;1.80;;
53519;SDS011;39397;53.204;5.778;2024-02-23T12:28:33;4.35;;;0.70;;
53519;SDS011;39397;53.204;5.778;2024-02-23T12:31:06;2.92;;;0.60;;
53519;SDS011;39397;53.204;5.778;2024-02-23T12:33:35;7.60;;;1.25;;
53519;SDS011;39397;53.204;5.778;2024-02-23T12:36:02;5.05;;;1.23;;
53519;SDS011;39397;53.204;5.778;2024-02-23T12:38:32;3.75;;;0.70;;
53519;SDS011;39397;53.204;5.778;2024-02-23T12:41:02;4.15;;;1.00;;
53519;SDS011;39397;53.204;5.778;2024-02-23T12:43:28;3.65;;;0.88;;
53519;SDS011;39397;53.204;5.778;2024-02-23T12:45:55;4.88;;;0.93;;
53519;SDS011;39397;53.204;5.778;2024-02-23T12:48:21;6.28;;;1.33;;
53519;SDS011;39397;53.204;5.778;2024-02-23T12:50:50;3.75;;;0.77;;
53519;SDS011;39397;53.204;5.778;2024-02-23T12:53:35;5.63;;;1.00;;
53519;SDS011;39397;53.204;5.778;2024-02-23T13:01:22;6.72;;;1.15;;
53519;SDS011;39397;53.204;5.778;2024-02-23T13:03:48;8.10;;;1.10;;
53519;SDS011;39397;53.204;5.778;2024-02-23T13:06:20;6.28;;;1.83;;
53519;SDS011;39397;53.204;5.778;2024-02-23T13:08:45;3.55;;;0.80;;
53519;SDS011;39397;53.204;5.778;2024-02-23T13:11:11;8.35;;;1.50;;
53519;SDS011;39397;53.204;5.778;2024-02-23T13:13:40;6.90;;;1.02;;
53519;SDS011;39397;53.204;5.778;2024-02-23T13:16:14;9.00;;;1.40;;
53519;SDS011;39397;53.204;5.778;2024-02-23T13:18:41;7.68;;;1.77;;
53519;SDS011;39397;53.204;5.778;2024-02-23T13:21:07;8.57;;;2.25;;
53519;SDS011;39397;53.204;5.778;2024-02-23T13:23:36;5.90;;;0.98;;
53519;SDS011;39397;53.204;5.778;2024-02-23T13:26:02;6.68;;;0.98;;
53519;SDS011;39397;53.204;5.778;2024-02-23T13:28:28;4.22;;;0.77;;
53519;SDS011;39397;53.204;5.778;2024-02-23T13:30:56;6.88;;;1.02;;
53519;SDS011;39397;53.204;5.778;2024-02-23T13:33:22;6.15;;;0.85;;
53519;SDS011;39397;53.204;5.778;2024-02-23T13:35:49;6.95;;;1.20;;
53519;SDS011;39397;53.204;5.778;2024-02-23T13:38:15;3.25;;;0.75;;
53519;SDS011;39397;53.204;5.778;2024-02-23T13:40:40;2.75;;;0.93;;
53519;SDS011;39397;53.204;5.778;2024-02-23T13:43:12;6.32;;;1.20;;
53519;SDS011;39397;53.204;5.778;2024-02-23T13:45:51;4.70;;;0.73;;
53519;SDS011;39397;53.204;5.778;2024-02-23T13:48:21;6.83;;;2.07;;
53519;SDS011;39397;53.204;5.778;2024-02-23T13:50:50;5.13;;;1.15;;
53519;SDS011;39397;53.204;5.778;2024-02-23T13:53:15;7.80;;;1.00;;
53519;SDS011;39397;53.204;5.778;2024-02-23T13:55:41;6.85;;;0.90;;
53519;SDS011;39397;53.204;5.778;2024-02-23T13:58:09;8.73;;;1.65;;
53519;SDS011;39397;53.204;5.778;2024-02-23T14:00:38;6.63;;;0.90;;
53519;SDS011;39397;53.204;5.778;2024-02-23T14:03:04;5.78;;;0.93;;
53519;SDS011;39397;53.204;5.778;2024-02-23T14:05:30;7.60;;;1.08;;
53519;SDS011;39397;53.204;5.778;2024-02-23T14:07:56;4.40;;;0.90;;
53519;SDS011;39397;53.204;5.778;2024-02-23T14:10:24;6.90;;;1.20;;
53519;SDS011;39397;53.204;5.778;2024-02-23T14:12:53;4.97;;;0.90;;
53519;SDS011;39397;53.204;5.778;2024-02-23T14:15:20;9.25;;;1.23;;
53519;SDS011;39397;53.204;5.778;2024-02-23T14:17:46;6.20;;;1.33;;
53519;SDS011;39397;53.204;5.778;2024-02-23T14:20:12;8.23;;;1.83;;
53519;SDS011;39397;53.204;5.778;2024-02-23T14:22:37;9.52;;;1.30;;
53519;SDS011;39397;53.204;5.778;2024-02-23T14:25:04;5.50;;;0.90;;
53519;SDS011;39397;53.204;5.778;2024-02-23T14:27:30;4.65;;;0.82;;
53519;SDS011;39397;53.204;5.778;2024-02-23T14:29:55;8.20;;;1.30;;
53519;SDS011;39397;53.204;5.778;2024-02-23T14:32:21;11.38;;;3.10;;
53519;SDS011;39397;53.204;5.778;2024-02-23T14:34:47;16.02;;;3.90;;
53519;SDS011;39397;53.204;5.778;2024-02-23T14:37:22;6.65;;;1.30;;
53519;SDS011;39397;53.204;5.778;2024-02-23T14:39:48;8.82;;;1.27;;
53519;SDS011;39397;53.204;5.778;2024-02-23T14:42:14;10.57;;;1.13;;
53519;SDS011;39397;53.204;5.778;2024-02-23T14:44:40;6.65;;;1.38;;
53519;SDS011;39397;53.204;5.778;2024-02-23T14:47:06;2.95;;;0.80;;
53519;SDS011;39397;53.204;5.778;2024-02-23T14:49:32;4.43;;;0.68;;
53519;SDS011;39397;53.204;5.778;2024-02-23T14:51:58;5.25;;;0.75;;
53519;SDS011;39397;53.204;5.778;2024-02-23T14:54:23;7.03;;;1.00;;
53519;SDS011;39397;53.204;5.778;2024-02-23T14:56:49;7.97;;;1.00;;
53519;SDS011;39397;53.204;5.778;2024-02-23T14:59:15;9.25;;;1.25;;